sensor_id;sensor_type;location;lat;lon;timestamp;P1;durP1;ratioP1;P2;durP2;ratioP2
63664;SDS011;49820;33.966;73.390;2023-06-10T01:50:54;18.50;;;9.65;;
63664;SDS011;49820;33.966;73.390;2023-06-10T01:53:24;21.60;;;10.20;;
63664;SDS011;49820;33.966;73.390;2023-06-10T01:55:54;20.08;;;9.70;;
63664;SDS011;49820;33.966;73.390;2023-06-10T01:58:23;23.23;;;9.18;;
63664;SDS011;49820;33.966;73.390;2023-06-10T02:00:53;19.88;;;9.50;;
63664;SDS011;49820;33.966;73.390;2023-06-10T02:03:22;22.38;;;8.40;;
63664;SDS011;49820;33.966;73.390;2023-06-10T02:05:52;22.70;;;8.75;;
63664;SDS011;49820;33.966;73.390;2023-06-10T02:08:21;21.50;;;8.43;;
63664;SDS011;49820;33.966;73.390;2023-06-10T02:28:37;20.30;;;8.02;;
63664;SDS011;49820;33.966;73.390;2023-06-10T02:31:07;15.73;;;7.50;;
63664;SDS011;49820;33.966;73.390;2023-06-10T02:33:36;23.45;;;7.00;;
63664;SDS011;49820;33.966;73.390;2023-06-10T02:36:08;17.70;;;6.47;;
63664;SDS011;49820;33.966;73.390;2023-06-10T02:38:41;18.45;;;7.88;;
63664;SDS011;49820;33.966;73.390;2023-06-10T02:41:11;17.83;;;7.40;;
63664;SDS011;49820;33.966;73.390;2023-06-10T02:43:41;19.70;;;7.38;;
63664;SDS011;49820;33.966;73.390;2023-06-10T02:46:11;19.48;;;7.35;;
63664;SDS011;49820;33.966;73.390;2023-06-10T02:48:42;20.58;;;7.30;;
63664;SDS011;49820;33.966;73.390;2023-06-10T02:51:18;15.43;;;6.50;;
63664;SDS011;49820;33.966;73.390;2023-06-10T02:53:55;21.37;;;6.80;;
63664;SDS011;49820;33.966;73.390;2023-06-10T02:56:24;19.88;;;7.55;;
63664;SDS011;49820;33.966;73.390;2023-06-10T02:58:59;19.73;;;7.22;;
63664;SDS011;49820;33.966;73.390;2023-06-10T03:01:30;17.50;;;7.57;;
63664;SDS011;49820;33.966;73.390;2023-06-10T03:04:07;20.77;;;7.70;;
63664;SDS011;49820;33.966;73.390;2023-06-10T03:06:37;22.03;;;8.30;;
63664;SDS011;49820;33.966;73.390;2023-06-10T03:09:19;20.38;;;7.60;;
63664;SDS011;49820;33.966;73.390;2023-06-10T03:11:52;21.70;;;7.22;;
63664;SDS011;49820;33.966;73.390;2023-06-10T03:14:22;24.77;;;7.75;;
63664;SDS011;49820;33.966;73.390;2023-06-10T03:16:53;20.05;;;6.97;;
63664;SDS011;49820;33.966;73.390;2023-06-10T03:19:24;20.13;;;7.07;;
63664;SDS011;49820;33.966;73.390;2023-06-10T03:21:57;20.25;;;6.88;;
63664;SDS011;49820;33.966;73.390;2023-06-10T03:24:57;18.23;;;7.68;;
63664;SDS011;49820;33.966;73.390;2023-06-10T03:27:28;22.05;;;6.90;;
63664;SDS011;49820;33.966;73.390;2023-06-10T03:30:02;20.52;;;6.53;;
63664;SDS011;49820;33.966;73.390;2023-06-10T03:32:32;15.35;;;6.43;;
63664;SDS011;49820;33.966;73.390;2023-06-10T03:35:02;20.45;;;6.68;;
63664;SDS011;49820;33.966;73.390;2023-06-10T03:37:32;19.63;;;6.78;;
63664;SDS011;49820;33.966;73.390;2023-06-10T03:40:01;15.70;;;6.30;;
63664;SDS011;49820;33.966;73.390;2023-06-10T03:42:35;20.25;;;6.90;;
63664;SDS011;49820;33.966;73.390;2023-06-10T03:45:05;18.20;;;6.38;;
63664;SDS011;49820;33.966;73.390;2023-06-10T03:47:36;25.00;;;7.25;;
63664;SDS011;49820;33.966;73.390;2023-06-10T03:50:09;15.82;;;6.57;;
63664;SDS011;49820;33.966;73.390;2023-06-10T03:52:42;24.55;;;6.85;;
63664;SDS011;49820;33.966;73.390;2023-06-10T03:55:14;15.75;;;6.15;;
63664;SDS011;49820;33.966;73.390;2023-06-10T03:57:45;17.77;;;6.30;;
63664;SDS011;49820;33.966;73.390;2023-06-10T04:00:15;17.83;;;6.13;;
63664;SDS011;49820;33.966;73.390;2023-06-10T04:02:45;15.50;;;5.70;;
63664;SDS011;49820;33.966;73.390;2023-06-10T04:05:26;18.80;;;6.60;;
63664;SDS011;49820;33.966;73.390;2023-06-10T04:07:57;20.17;;;6.72;;
63664;SDS011;49820;33.966;73.390;2023-06-10T04:10:26;19.80;;;6.90;;
63664;SDS011;49820;33.966;73.390;2023-06-10T04:12:56;14.47;;;6.20;;
63664;SDS011;49820;33.966;73.390;2023-06-10T04:15:29;19.07;;;6.40;;
63664;SDS011;49820;33.966;73.390;2023-06-10T04:18:06;18.88;;;6.10;;
63664;SDS011;49820;33.966;73.390;2023-06-10T04:20:36;20.40;;;6.73;;
63664;SDS011;49820;33.966;73.390;2023-06-10T04:23:06;16.70;;;7.03;;
63664;SDS011;49820;33.966;73.390;2023-06-10T04:25:37;21.88;;;6.78;;
63664;SDS011;49820;33.966;73.390;2023-06-10T04:28:07;17.13;;;6.68;;
63664;SDS011;49820;33.966;73.390;2023-06-10T04:30:37;19.65;;;7.05;;
63664;SDS011;49820;33.966;73.390;2023-06-10T04:33:06;19.13;;;6.65;;
63664;SDS011;49820;33.966;73.390;2023-06-10T04:35:38;17.38;;;6.22;;
63664;SDS011;49820;33.966;73.390;2023-06-10T04:38:10;17.40;;;7.00;;
63664;SDS011;49820;33.966;73.390;2023-06-10T04:40:39;22.65;;;6.43;;
63664;SDS011;49820;33.966;73.390;2023-06-10T04:43:10;19.50;;;7.60;;
63664;SDS011;49820;33.966;73.390;2023-06-10T04:45:40;17.65;;;6.60;;
63664;SDS011;49820;33.966;73.390;2023-06-10T04:48:13;19.10;;;8.40;;
63664;SDS011;49820;33.966;73.390;2023-06-10T04:50:42;19.65;;;11.82;;
63664;SDS011;49820;33.966;73.390;2023-06-10T04:53:11;19.25;;;8.20;;
63664;SDS011;49820;33.966;73.390;2023-06-10T04:55:44;25.02;;;7.03;;
63664;SDS011;49820;33.966;73.390;2023-06-10T04:58:15;20.45;;;7.18;;
63664;SDS011;49820;33.966;73.390;2023-06-10T05:00:44;18.48;;;5.90;;
63664;SDS011;49820;33.966;73.390;2023-06-10T05:03:13;20.73;;;6.38;;
63664;SDS011;49820;33.966;73.390;2023-06-10T05:05:43;17.33;;;5.80;;
63664;SDS011;49820;33.966;73.390;2023-06-10T05:08:13;16.92;;;5.90;;
63664;SDS011;49820;33.966;73.390;2023-06-10T05:10:43;23.20;;;6.83;;
63664;SDS011;49820;33.966;73.390;2023-06-10T05:13:15;21.50;;;7.28;;
63664;SDS011;49820;33.966;73.390;2023-06-10T05:15:46;16.98;;;6.72;;
63664;SDS011;49820;33.966;73.390;2023-06-10T05:18:15;18.88;;;7.25;;
63664;SDS011;49820;33.966;73.390;2023-06-10T05:20:45;18.90;;;6.78;;
63664;SDS011;49820;33.966;73.390;2023-06-10T05:23:14;20.58;;;6.18;;
63664;SDS011;49820;33.966;73.390;2023-06-10T05:25:44;19.10;;;5.65;;
63664;SDS011;49820;33.966;73.390;2023-06-10T05:28:14;15.52;;;5.22;;
63664;SDS011;49820;33.966;73.390;2023-06-10T05:30:43;20.33;;;6.78;;
63664;SDS011;49820;33.966;73.390;2023-06-10T05:33:14;18.30;;;5.95;;
63664;SDS011;49820;33.966;73.390;2023-06-10T05:35:45;16.40;;;5.20;;
63664;SDS011;49820;33.966;73.390;2023-06-10T05:38:15;15.25;;;4.88;;
63664;SDS011;49820;33.966;73.390;2023-06-10T05:40:44;19.00;;;5.68;;
63664;SDS011;49820;33.966;73.390;2023-06-10T05:43:14;17.67;;;5.95;;
63664;SDS011;49820;33.966;73.390;2023-06-10T05:45:45;21.45;;;6.22;;
63664;SDS011;49820;33.966;73.390;2023-06-10T05:48:15;19.02;;;5.75;;
63664;SDS011;49820;33.966;73.390;2023-06-10T05:50:45;17.60;;;5.53;;
63664;SDS011;49820;33.966;73.390;2023-06-10T05:53:16;18.00;;;5.75;;
63664;SDS011;49820;33.966;73.390;2023-06-10T05:55:47;19.10;;;5.90;;
63664;SDS011;49820;33.966;73.390;2023-06-10T05:58:17;14.85;;;5.63;;
63664;SDS011;49820;33.966;73.390;2023-06-10T06:00:46;19.48;;;5.97;;
63664;SDS011;49820;33.966;73.390;2023-06-10T06:03:18;18.42;;;6.35;;
63664;SDS011;49820;33.966;73.390;2023-06-10T06:05:47;23.02;;;6.53;;
63664;SDS011;49820;33.966;73.390;2023-06-10T06:08:17;21.90;;;7.33;;
63664;SDS011;49820;33.966;73.390;2023-06-10T06:10:52;19.98;;;6.60;;
63664;SDS011;49820;33.966;73.390;2023-06-10T06:13:23;14.57;;;5.97;;
63664;SDS011;49820;33.966;73.390;2023-06-10T06:15:53;18.55;;;6.20;;
63664;SDS011;49820;33.966;73.390;2023-06-10T06:18:23;17.50;;;6.27;;
63664;SDS011;49820;33.966;73.390;2023-06-10T06:20:52;18.45;;;5.68;;
63664;SDS011;49820;33.966;73.390;2023-06-10T06:23:22;20.40;;;5.63;;
63664;SDS011;49820;33.966;73.390;2023-06-10T06:25:53;17.70;;;5.47;;
63664;SDS011;49820;33.966;73.390;2023-06-10T06:28:23;16.90;;;6.40;;
63664;SDS011;49820;33.966;73.390;2023-06-10T06:30:57;17.25;;;6.55;;
63664;SDS011;49820;33.966;73.390;2023-06-10T06:33:26;17.90;;;5.80;;
63664;SDS011;49820;33.966;73.390;2023-06-10T06:35:56;15.30;;;5.57;;
63664;SDS011;49820;33.966;73.390;2023-06-10T06:38:29;20.75;;;6.32;;
63664;SDS011;49820;33.966;73.390;2023-06-10T06:40:59;19.10;;;6.47;;
63664;SDS011;49820;33.966;73.390;2023-06-10T06:43:34;20.33;;;7.60;;
63664;SDS011;49820;33.966;73.390;2023-06-10T06:46:30;21.10;;;6.80;;
63664;SDS011;49820;33.966;73.390;2023-06-10T06:49:00;16.98;;;6.57;;
63664;SDS011;49820;33.966;73.390;2023-06-10T06:51:30;17.98;;;6.05;;
63664;SDS011;49820;33.966;73.390;2023-06-10T06:54:00;20.00;;;6.32;;
63664;SDS011;49820;33.966;73.390;2023-06-10T06:56:29;16.85;;;6.82;;
63664;SDS011;49820;33.966;73.390;2023-06-10T06:58:59;20.48;;;6.53;;
63664;SDS011;49820;33.966;73.390;2023-06-10T07:01:28;21.95;;;6.68;;
63664;SDS011;49820;33.966;73.390;2023-06-10T07:03:57;16.17;;;6.43;;
63664;SDS011;49820;33.966;73.390;2023-06-10T07:06:27;21.08;;;6.30;;
63664;SDS011;49820;33.966;73.390;2023-06-10T07:08:58;15.87;;;6.33;;
63664;SDS011;49820;33.966;73.390;2023-06-10T07:11:29;19.25;;;6.68;;
63664;SDS011;49820;33.966;73.390;2023-06-10T07:13:59;19.38;;;6.43;;
63664;SDS011;49820;33.966;73.390;2023-06-10T07:16:29;18.88;;;6.30;;
63664;SDS011;49820;33.966;73.390;2023-06-10T07:18:58;17.73;;;6.47;;
63664;SDS011;49820;33.966;73.390;2023-06-10T07:21:32;18.40;;;6.60;;
63664;SDS011;49820;33.966;73.390;2023-06-10T07:24:04;19.90;;;6.45;;
63664;SDS011;49820;33.966;73.390;2023-06-10T07:26:33;16.47;;;5.63;;
63664;SDS011;49820;33.966;73.390;2023-06-10T07:29:09;17.42;;;5.93;;
63664;SDS011;49820;33.966;73.390;2023-06-10T07:31:41;19.55;;;6.80;;
63664;SDS011;49820;33.966;73.390;2023-06-10T07:34:11;20.55;;;6.50;;
63664;SDS011;49820;33.966;73.390;2023-06-10T07:36:40;17.95;;;6.55;;
63664;SDS011;49820;33.966;73.390;2023-06-10T07:39:10;18.15;;;6.32;;
63664;SDS011;49820;33.966;73.390;2023-06-10T07:41:44;17.60;;;6.80;;
63664;SDS011;49820;33.966;73.390;2023-06-10T07:44:14;23.45;;;7.22;;
63664;SDS011;49820;33.966;73.390;2023-06-10T07:46:44;20.77;;;7.47;;
63664;SDS011;49820;33.966;73.390;2023-06-10T07:49:14;16.27;;;5.75;;
63664;SDS011;49820;33.966;73.390;2023-06-10T07:51:43;17.70;;;6.55;;
63664;SDS011;49820;33.966;73.390;2023-06-10T07:54:13;21.38;;;6.80;;
63664;SDS011;49820;33.966;73.390;2023-06-10T07:56:44;14.27;;;6.68;;
63664;SDS011;49820;33.966;73.390;2023-06-10T07:59:14;19.35;;;6.50;;
63664;SDS011;49820;33.966;73.390;2023-06-10T08:01:43;17.55;;;6.20;;
63664;SDS011;49820;33.966;73.390;2023-06-10T08:04:14;19.30;;;6.33;;
63664;SDS011;49820;33.966;73.390;2023-06-10T08:06:44;17.23;;;6.18;;
63664;SDS011;49820;33.966;73.390;2023-06-10T08:09:14;18.53;;;6.60;;
63664;SDS011;49820;33.966;73.390;2023-06-10T08:11:43;19.02;;;5.90;;
63664;SDS011;49820;33.966;73.390;2023-06-10T08:14:14;26.50;;;7.05;;
63664;SDS011;49820;33.966;73.390;2023-06-10T08:16:44;19.77;;;7.20;;
63664;SDS011;49820;33.966;73.390;2023-06-10T08:19:16;19.30;;;7.28;;
63664;SDS011;49820;33.966;73.390;2023-06-10T08:21:46;14.48;;;6.07;;
63664;SDS011;49820;33.966;73.390;2023-06-10T08:24:16;15.93;;;6.88;;
63664;SDS011;49820;33.966;73.390;2023-06-10T08:26:47;18.98;;;6.65;;
63664;SDS011;49820;33.966;73.390;2023-06-10T08:29:17;17.60;;;6.25;;
63664;SDS011;49820;33.966;73.390;2023-06-10T08:31:46;20.95;;;6.28;;
63664;SDS011;49820;33.966;73.390;2023-06-10T08:34:17;19.85;;;7.45;;
63664;SDS011;49820;33.966;73.390;2023-06-10T08:36:46;18.50;;;7.93;;
63664;SDS011;49820;33.966;73.390;2023-06-10T08:39:21;22.30;;;7.03;;
63664;SDS011;49820;33.966;73.390;2023-06-10T08:44:55;20.77;;;7.28;;
63664;SDS011;49820;33.966;73.390;2023-06-10T08:47:29;19.20;;;6.90;;
63664;SDS011;49820;33.966;73.390;2023-06-10T08:50:06;15.15;;;6.43;;
63664;SDS011;49820;33.966;73.390;2023-06-10T08:52:41;14.05;;;6.32;;
63664;SDS011;49820;33.966;73.390;2023-06-10T08:55:23;17.45;;;6.88;;
63664;SDS011;49820;33.966;73.390;2023-06-10T08:58:14;18.40;;;7.20;;
63664;SDS011;49820;33.966;73.390;2023-06-10T09:00:43;19.85;;;7.38;;
63664;SDS011;49820;33.966;73.390;2023-06-10T09:03:24;17.83;;;6.80;;
63664;SDS011;49820;33.966;73.390;2023-06-10T09:05:55;18.25;;;7.30;;
63664;SDS011;49820;33.966;73.390;2023-06-10T09:08:25;16.60;;;6.90;;
63664;SDS011;49820;33.966;73.390;2023-06-10T09:10:57;22.98;;;7.20;;
63664;SDS011;49820;33.966;73.390;2023-06-10T09:13:27;17.60;;;7.07;;
63664;SDS011;49820;33.966;73.390;2023-06-10T09:15:56;27.52;;;11.13;;
63664;SDS011;49820;33.966;73.390;2023-06-10T09:18:30;21.30;;;8.18;;
63664;SDS011;49820;33.966;73.390;2023-06-10T09:21:06;22.67;;;8.02;;
63664;SDS011;49820;33.966;73.390;2023-06-10T09:23:36;18.95;;;7.90;;
63664;SDS011;49820;33.966;73.390;2023-06-10T09:26:08;23.95;;;8.43;;
63664;SDS011;49820;33.966;73.390;2023-06-10T09:28:49;22.00;;;8.27;;
63664;SDS011;49820;33.966;73.390;2023-06-10T09:31:19;15.52;;;7.28;;
63664;SDS011;49820;33.966;73.390;2023-06-10T09:33:50;20.83;;;7.22;;
63664;SDS011;49820;33.966;73.390;2023-06-10T09:36:23;22.50;;;7.05;;
63664;SDS011;49820;33.966;73.390;2023-06-10T09:38:56;17.83;;;7.18;;
63664;SDS011;49820;33.966;73.390;2023-06-10T09:41:39;17.63;;;6.60;;
63664;SDS011;49820;33.966;73.390;2023-06-10T09:44:19;21.17;;;6.93;;
63664;SDS011;49820;33.966;73.390;2023-06-10T09:46:50;20.90;;;7.40;;
63664;SDS011;49820;33.966;73.390;2023-06-10T09:49:28;21.58;;;7.30;;
63664;SDS011;49820;33.966;73.390;2023-06-10T09:52:06;17.83;;;7.40;;
63664;SDS011;49820;33.966;73.390;2023-06-10T09:54:36;17.73;;;7.23;;
63664;SDS011;49820;33.966;73.390;2023-06-10T09:57:12;21.33;;;7.15;;
63664;SDS011;49820;33.966;73.390;2023-06-10T09:59:42;23.17;;;7.30;;
63664;SDS011;49820;33.966;73.390;2023-06-10T10:02:17;18.05;;;7.28;;
63664;SDS011;49820;33.966;73.390;2023-06-10T10:04:48;22.52;;;7.55;;
63664;SDS011;49820;33.966;73.390;2023-06-10T10:07:18;18.10;;;7.63;;
63664;SDS011;49820;33.966;73.390;2023-06-10T10:09:52;17.52;;;7.13;;
63664;SDS011;49820;33.966;73.390;2023-06-10T10:12:21;18.40;;;6.85;;
63664;SDS011;49820;33.966;73.390;2023-06-10T10:14:52;16.63;;;6.83;;
63664;SDS011;49820;33.966;73.390;2023-06-10T10:17:25;18.75;;;7.18;;
63664;SDS011;49820;33.966;73.390;2023-06-10T10:20:02;16.67;;;7.87;;
63664;SDS011;49820;33.966;73.390;2023-06-10T10:22:41;21.85;;;8.15;;
63664;SDS011;49820;33.966;73.390;2023-06-10T10:25:21;17.50;;;7.30;;
63664;SDS011;49820;33.966;73.390;2023-06-10T10:28:02;16.83;;;7.45;;
63664;SDS011;49820;33.966;73.390;2023-06-10T10:30:44;15.98;;;7.22;;
63664;SDS011;49820;33.966;73.390;2023-06-10T10:33:19;16.98;;;7.20;;
63664;SDS011;49820;33.966;73.390;2023-06-10T10:35:55;21.15;;;7.70;;
63664;SDS011;49820;33.966;73.390;2023-06-10T10:38:28;17.85;;;7.28;;
63664;SDS011;49820;33.966;73.390;2023-06-10T10:40:58;17.50;;;7.03;;
63664;SDS011;49820;33.966;73.390;2023-06-10T10:43:29;17.50;;;6.80;;
63664;SDS011;49820;33.966;73.390;2023-06-10T10:46:00;18.08;;;7.07;;
63664;SDS011;49820;33.966;73.390;2023-06-10T10:48:38;23.60;;;8.07;;
63664;SDS011;49820;33.966;73.390;2023-06-10T10:51:12;22.45;;;7.72;;
63664;SDS011;49820;33.966;73.390;2023-06-10T10:57:12;16.70;;;7.37;;
63664;SDS011;49820;33.966;73.390;2023-06-10T11:02:42;20.30;;;8.43;;
63664;SDS011;49820;33.966;73.390;2023-06-10T11:05:15;17.58;;;8.20;;
63664;SDS011;49820;33.966;73.390;2023-06-10T11:07:52;23.60;;;10.00;;
63664;SDS011;49820;33.966;73.390;2023-06-10T11:10:31;20.25;;;9.15;;
63664;SDS011;49820;33.966;73.390;2023-06-10T11:13:08;25.55;;;11.15;;
63664;SDS011;49820;33.966;73.390;2023-06-10T11:15:46;17.30;;;8.27;;
63664;SDS011;49820;33.966;73.390;2023-06-10T11:18:25;21.42;;;9.15;;
63664;SDS011;49820;33.966;73.390;2023-06-10T11:29:06;41.78;;;28.88;;
63664;SDS011;49820;33.966;73.390;2023-06-10T11:31:42;26.10;;;15.03;;
63664;SDS011;49820;33.966;73.390;2023-06-10T11:34:22;22.42;;;8.50;;
63664;SDS011;49820;33.966;73.390;2023-06-10T11:36:55;24.30;;;15.47;;
63664;SDS011;49820;33.966;73.390;2023-06-10T11:39:26;26.70;;;13.77;;
63664;SDS011;49820;33.966;73.390;2023-06-10T11:41:58;37.40;;;25.57;;
63664;SDS011;49820;33.966;73.390;2023-06-10T11:44:27;28.45;;;13.07;;
63664;SDS011;49820;33.966;73.390;2023-06-10T11:46:58;27.50;;;11.30;;
63664;SDS011;49820;33.966;73.390;2023-06-10T11:49:31;23.15;;;11.20;;
63664;SDS011;49820;33.966;73.390;2023-06-10T11:52:13;26.25;;;12.25;;
63664;SDS011;49820;33.966;73.390;2023-06-10T11:54:46;29.65;;;17.63;;
63664;SDS011;49820;33.966;73.390;2023-06-10T11:57:24;26.55;;;12.40;;
63664;SDS011;49820;33.966;73.390;2023-06-10T11:59:53;23.55;;;12.25;;
63664;SDS011;49820;33.966;73.390;2023-06-10T12:02:24;27.10;;;14.07;;
63664;SDS011;49820;33.966;73.390;2023-06-10T12:04:55;24.95;;;13.07;;
63664;SDS011;49820;33.966;73.390;2023-06-10T12:07:44;27.92;;;14.20;;
63664;SDS011;49820;33.966;73.390;2023-06-10T12:10:14;29.02;;;17.52;;
63664;SDS011;49820;33.966;73.390;2023-06-10T12:12:53;31.55;;;15.00;;
63664;SDS011;49820;33.966;73.390;2023-06-10T12:15:24;28.35;;;13.77;;
63664;SDS011;49820;33.966;73.390;2023-06-10T12:17:57;29.48;;;17.35;;
63664;SDS011;49820;33.966;73.390;2023-06-10T12:20:28;41.45;;;26.95;;
63664;SDS011;49820;33.966;73.390;2023-06-10T12:23:07;32.30;;;17.50;;
63664;SDS011;49820;33.966;73.390;2023-06-10T12:25:50;33.70;;;17.25;;
63664;SDS011;49820;33.966;73.390;2023-06-10T12:28:25;32.00;;;15.70;;
63664;SDS011;49820;33.966;73.390;2023-06-10T12:31:13;26.58;;;12.80;;
63664;SDS011;49820;33.966;73.390;2023-06-10T12:33:43;20.88;;;11.57;;
63664;SDS011;49820;33.966;73.390;2023-06-10T12:36:17;24.98;;;12.05;;
63664;SDS011;49820;33.966;73.390;2023-06-10T12:38:49;17.95;;;9.48;;
63664;SDS011;49820;33.966;73.390;2023-06-10T12:41:20;19.75;;;10.05;;
63664;SDS011;49820;33.966;73.390;2023-06-10T12:43:54;21.98;;;11.45;;
63664;SDS011;49820;33.966;73.390;2023-06-10T12:46:24;27.13;;;12.65;;
63664;SDS011;49820;33.966;73.390;2023-06-10T12:48:53;18.63;;;10.15;;
63664;SDS011;49820;33.966;73.390;2023-06-10T12:51:25;23.08;;;11.07;;
63664;SDS011;49820;33.966;73.390;2023-06-10T12:53:55;20.52;;;11.10;;
63664;SDS011;49820;33.966;73.390;2023-06-10T12:56:25;22.35;;;10.95;;
63664;SDS011;49820;33.966;73.390;2023-06-10T12:58:56;22.98;;;11.95;;
63664;SDS011;49820;33.966;73.390;2023-06-10T13:01:25;21.52;;;11.75;;
63664;SDS011;49820;33.966;73.390;2023-06-10T13:03:57;23.93;;;11.83;;
63664;SDS011;49820;33.966;73.390;2023-06-10T13:06:29;20.83;;;12.23;;
63664;SDS011;49820;33.966;73.390;2023-06-10T13:09:02;21.08;;;12.95;;
63664;SDS011;49820;33.966;73.390;2023-06-10T13:11:36;24.75;;;13.25;;
63664;SDS011;49820;33.966;73.390;2023-06-10T13:14:05;23.70;;;12.85;;
63664;SDS011;49820;33.966;73.390;2023-06-10T13:16:35;21.15;;;12.77;;
63664;SDS011;49820;33.966;73.390;2023-06-10T13:19:06;24.27;;;11.18;;
63664;SDS011;49820;33.966;73.390;2023-06-10T13:21:36;16.25;;;9.55;;
63664;SDS011;49820;33.966;73.390;2023-06-10T13:24:09;17.20;;;9.45;;
63664;SDS011;49820;33.966;73.390;2023-06-10T13:26:39;20.55;;;9.20;;
63664;SDS011;49820;33.966;73.390;2023-06-10T13:29:08;20.38;;;8.85;;
